NCAR-RAP Real-Time Weather Data

Output produced by METARs form (17 September 2019  16:54 UTC)
found at http://weather.rap.ucar.edu/surface/
 
KJFK 171551Z 36010G15KT 10SM FEW300 23/08 A3015 RMK AO2 SLP210 T02280078
KJFK 171451Z 02012KT 10SM FEW300 22/08 A3016 RMK AO2 SLP213 T02220083 51006
KJFK 171351Z 03010KT 10SM FEW300 21/11 A3016 RMK AO2 SLP213 T02110106
KJFK 171251Z 36007KT 10SM FEW300 19/11 A3015 RMK AO2 SLP210 T01940106
KJFK 171151Z 01007KT 10SM FEW047 FEW300 18/12 A3014 RMK AO2 SLP207 T01780117 10189 20150 52018
KJFK 171051Z 01006KT 10SM FEW047 FEW300 16/11 A3013 RMK AO2 SLP202 T01560111
KJFK 170951Z 03005KT 10SM FEW047 15/12 A3011 RMK AO2 SLP195 T01500117
KJFK 170851Z 03006KT 10SM FEW045 16/13 A3009 RMK AO2 SLP189 T01560128 50002
KJFK 170751Z 03006KT 10SM SCT043 17/13 A3009 RMK AO2 SLP190 T01670128
KJFK 170651Z 03005KT 10SM BKN042 18/13 A3009 RMK AO2 SLP187 T01780128
KJFK 170551Z 05005KT 10SM BKN039 18/13 A3008 RMK AO2 SLP187 T01830133 10211 20183 51010
KJFK 170451Z 07004KT 10SM FEW017 BKN042 BKN080 18/15 A3008 RMK AO2 SLP185 T01830150 402560183
KJFK 170351Z 05005KT 10SM FEW036 BKN065 20/18 A3007 RMK AO2 SLP182 T02000183
KJFK 170251Z 07003KT 10SM BKN039 20/19 A3005 RMK AO2 SLP177 T02000189 51008
KJFK 170051Z 14004KT 10SM FEW035 BKN075 21/19 A3004 RMK AO2 SLP173 T02110189
KJFK 162351Z 15003KT 10SM FEW035 SCT060 OVC075 21/19 A3003 RMK AO2 SLP168 T02110189 10250 20211 53005
KJFK 162251Z 00000KT 10SM FEW035 BKN075 BKN120 21/19 A3002 RMK AO2 SLP165 T02110189
KJFK 162151Z 14003KT 10SM FEW035 BKN075 BKN110 22/19 A3002 RMK AO2 SLP164 T02170189
KJFK 162051Z 14005KT 10SM FEW037 OVC075 22/18 A3001 RMK AO2 SLP163 T02170183 56010